Time;durP1;ratioP1;P1;durP2;ratioP2;P2;SDS_P1;SDS_P2;PMS_P1;PMS_P2;Temp;Humidity;BMP_temperature;BMP_pressure;BME280_temperature;BME280_humidity;BME280_pressure;Samples;Min_cycle;Max_cycle;Signal;HPM_P1;HPM_P2
2023/03/29 00:00:20;;;;;;;1.33;1.02;;;;;;;;;;5026758;28;20454;-82
2023/03/29 00:02:48;;;;;;;1.67;1.08;;;;;;;;;;5010756;28;20096;-84
2023/03/29 00:05:16;;;;;;;1.58;1.13;;;;;;;;;;5030009;28;20023;-83
2023/03/29 00:07:42;;;;;;;1.13;1.08;;;;;;;;;;5026577;28;20119;-82
2023/03/29 00:10:09;;;;;;;1.55;1.10;;;;;;;;;;5031768;28;20085;-84
2023/03/29 00:12:37;;;;;;;1.15;1.02;;;;;;;;;;5012176;28;20572;-81
2023/03/29 00:15:05;;;;;;;1.63;1.40;;;;;;;;;;5034685;28;20044;-84
2023/03/29 00:17:31;;;;;;;1.63;1.17;;;;;;;;;;5033773;28;20476;-83
2023/03/29 00:19:56;;;;;;;3.00;1.88;;;;;;;;;;5033726;28;20021;-84
2023/03/29 00:22:22;;;;;;;1.30;1.17;;;;;;;;;;5046521;28;20052;-79
2023/03/29 00:24:48;;;;;;;4.32;1.60;;;;;;;;;;5050139;28;20049;-81
2023/03/29 00:27:15;;;;;;;2.70;1.25;;;;;;;;;;5046057;28;20029;-84
2023/03/29 00:29:40;;;;;;;2.95;1.27;;;;;;;;;;5011643;28;20053;-82
2023/03/29 00:32:06;;;;;;;2.85;1.40;;;;;;;;;;5015843;28;20547;-84
2023/03/29 00:34:31;;;;;;;2.13;1.33;;;;;;;;;;5013145;28;20141;-84
2023/03/29 00:36:57;;;;;;;1.23;1.13;;;;;;;;;;5025427;28;20032;-81
2023/03/29 00:39:23;;;;;;;2.80;1.38;;;;;;;;;;5029399;28;20163;-83
2023/03/29 00:41:49;;;;;;;1.55;1.38;;;;;;;;;;5033039;28;20613;-83
2023/03/29 00:44:52;;;;;;;4.88;1.30;;;;;;;;;;5033408;28;20037;-83
2023/03/29 00:47:23;;;;;;;1.63;1.50;;;;;;;;;;5029253;28;20025;-84
2023/03/29 00:49:51;;;;;;;1.58;1.48;;;;;;;;;;5022410;28;21013;-84
2023/03/29 00:52:20;;;;;;;1.38;1.20;;;;;;;;;;5016302;28;20091;-82
2023/03/29 00:54:48;;;;;;;3.15;1.83;;;;;;;;;;5034226;28;20098;-83
2023/03/29 00:57:16;;;;;;;2.55;1.88;;;;;;;;;;5036039;28;20021;-82
2023/03/29 00:59:43;;;;;;;3.67;1.52;;;;;;;;;;5021236;28;20026;-81
2023/03/29 01:02:09;;;;;;;2.15;1.27;;;;;;;;;;5043728;28;20049;-80
2023/03/29 01:04:50;;;;;;;3.78;1.33;;;;;;;;;;5042212;28;20059;-81
2023/03/29 01:07:39;;;;;;;2.95;1.52;;;;;;;;;;5045771;28;20040;-80
2023/03/29 01:10:18;;;;;;;5.13;1.77;;;;;;;;;;5027864;28;20030;-80
2023/03/29 01:12:50;;;;;;;3.58;1.50;;;;;;;;;;5045426;28;20917;-81
2023/03/29 01:15:22;;;;;;;;;;;;;;;;;;5044776;28;20030;-80
2023/03/29 01:17:50;;;;;;;2.38;1.95;;;;;;;;;;5020105;28;19972;-84
2023/03/29 01:20:22;;;;;;;3.17;1.95;;;;;;;;;;5033163;28;20511;-83
2023/03/29 01:23:02;;;;;;;2.35;1.77;;;;;;;;;;5032743;28;20025;-81
2023/03/29 01:26:09;;;;;;;3.45;1.70;;;;;;;;;;5028151;28;20095;-83
2023/03/29 01:28:41;;;;;;;3.42;1.77;;;;;;;;;;5033098;28;20037;-82
2023/03/29 01:31:13;;;;;;;2.00;1.40;;;;;;;;;;5037095;28;20474;-84
2023/03/29 01:33:50;;;;;;;3.47;1.90;;;;;;;;;;5038577;28;20037;-83
2023/03/29 01:36:33;;;;;;;4.47;2.25;;;;;;;;;;5016091;28;20116;-82
2023/03/29 01:39:02;;;;;;;2.75;2.00;;;;;;;;;;5041358;28;20032;-83
2023/03/29 01:41:57;;;;;;;2.35;1.75;;;;;;;;;;5037052;28;20025;-83
2023/03/29 01:44:47;;;;;;;3.53;2.08;;;;;;;;;;5037288;28;20400;-83
2023/03/29 01:47:23;;;;;;;1.88;1.58;;;;;;;;;;5035841;28;20055;-82
2023/03/29 01:49:56;;;;;;;3.45;1.90;;;;;;;;;;5038747;28;20041;-82
2023/03/29 01:52:29;;;;;;;3.72;1.60;;;;;;;;;;5037061;28;20022;-82
2023/03/29 01:55:17;;;;;;;2.50;1.80;;;;;;;;;;5019448;28;20043;-82
2023/03/29 01:57:45;;;;;;;2.50;1.83;;;;;;;;;;5019264;28;20384;-82
2023/03/29 02:00:17;;;;;;;4.95;2.38;;;;;;;;;;5035084;28;20057;-83
2023/03/29 02:02:45;;;;;;;2.47;1.67;;;;;;;;;;5033378;28;20762;-83
2023/03/29 02:05:15;;;;;;;4.38;2.08;;;;;;;;;;5032274;28;20030;-82
2023/03/29 02:07:42;;;;;;;2.33;1.85;;;;;;;;;;5035619;28;20025;-82
2023/03/29 02:10:10;;;;;;;3.30;1.77;;;;;;;;;;5035249;28;20037;-82
2023/03/29 02:12:36;;;;;;;1.90;1.80;;;;;;;;;;5035819;28;20033;-82
2023/03/29 02:15:10;;;;;;;3.08;1.38;;;;;;;;;;5009378;28;20458;-82
2023/03/29 02:17:35;;;;;;;2.20;1.52;;;;;;;;;;5033672;28;20100;-82
2023/03/29 02:20:13;;;;;;;2.03;1.63;;;;;;;;;;5018394;28;20108;-82
2023/03/29 02:23:03;;;;;;;2.08;1.50;;;;;;;;;;5034844;28;20033;-82
2023/03/29 02:25:29;;;;;;;2.45;1.75;;;;;;;;;;5032768;28;20087;-82
2023/03/29 02:27:55;;;;;;;5.22;2.42;;;;;;;;;;5030677;28;20162;-82
2023/03/29 02:30:22;;;;;;;2.95;2.47;;;;;;;;;;5035956;28;20033;-82
2023/03/29 02:33:02;;;;;;;2.20;1.90;;;;;;;;;;5036548;28;20037;-83
2023/03/29 02:35:38;;;;;;;3.15;1.40;;;;;;;;;;5037455;28;21013;-82
2023/03/29 02:38:07;;;;;;;3.38;1.63;;;;;;;;;;5036948;28;20032;-81
2023/03/29 02:40:34;;;;;;;1.77;1.42;;;;;;;;;;5036301;28;21033;-82
2023/03/29 02:43:01;;;;;;;3.28;1.92;;;;;;;;;;5033471;28;20040;-82
2023/03/29 02:45:28;;;;;;;2.45;1.45;;;;;;;;;;5020548;28;20043;-84
2023/03/29 02:47:58;;;;;;;2.92;1.85;;;;;;;;;;5036747;28;20116;-82
2023/03/29 02:50:29;;;;;;;4.57;1.88;;;;;;;;;;5036960;28;20052;-82
2023/03/29 02:53:01;;;;;;;3.83;1.80;;;;;;;;;;5037075;28;20037;-84
2023/03/29 02:55:33;;;;;;;2.50;1.98;;;;;;;;;;5014831;28;20392;-83
2023/03/29 02:58:06;;;;;;;1.48;1.35;;;;;;;;;;5036316;28;20033;-82
2023/03/29 03:00:33;;;;;;;4.60;1.60;;;;;;;;;;5003893;28;20036;-83
2023/03/29 03:02:58;;;;;;;1.40;1.30;;;;;;;;;;5008366;28;20036;-80
2023/03/29 03:05:24;;;;;;;3.80;1.55;;;;;;;;;;5013590;28;20029;-80
2023/03/29 03:07:50;;;;;;;1.88;1.38;;;;;;;;;;5029515;28;20352;-81
2023/03/29 03:10:15;;;;;;;1.50;1.38;;;;;;;;;;5012319;28;20099;-82
2023/03/29 03:12:41;;;;;;;4.03;1.33;;;;;;;;;;5011536;28;20056;-81
2023/03/29 03:15:07;;;;;;;3.53;1.98;;;;;;;;;;5028140;28;20045;-81
2023/03/29 03:17:32;;;;;;;2.92;1.52;;;;;;;;;;5028961;28;20111;-82
2023/03/29 03:19:58;;;;;;;1.95;1.65;;;;;;;;;;5013229;28;20025;-81
2023/03/29 03:22:25;;;;;;;4.45;1.83;;;;;;;;;;5030175;28;20198;-82
2023/03/29 03:24:50;;;;;;;2.30;1.75;;;;;;;;;;5029923;28;20116;-83
2023/03/29 03:27:16;;;;;;;2.13;1.63;;;;;;;;;;5029173;28;20045;-79
2023/03/29 03:29:42;;;;;;;1.55;1.45;;;;;;;;;;5030166;28;20040;-80
2023/03/29 03:32:08;;;;;;;1.70;1.20;;;;;;;;;;5029245;28;20038;-80
2023/03/29 03:34:34;;;;;;;1.90;1.55;;;;;;;;;;5028995;28;20033;-82
2023/03/29 03:37:00;;;;;;;2.08;1.45;;;;;;;;;;5014434;28;20037;-82
2023/03/29 03:39:26;;;;;;;2.75;1.45;;;;;;;;;;5031856;28;20044;-82
2023/03/29 03:41:51;;;;;;;2.53;1.70;;;;;;;;;;5015773;28;21287;-82
2023/03/29 03:44:16;;;;;;;2.35;1.40;;;;;;;;;;5031104;28;20037;-79
2023/03/29 03:46:42;;;;;;;1.98;1.52;;;;;;;;;;5033598;28;20036;-82
2023/03/29 03:49:07;;;;;;;4.68;1.70;;;;;;;;;;5034084;28;20115;-84
2023/03/29 03:51:32;;;;;;;1.25;1.20;;;;;;;;;;5029847;28;20037;-85
2023/03/29 03:53:58;;;;;;;1.65;1.52;;;;;;;;;;5033091;28;20033;-83
2023/03/29 03:56:24;;;;;;;4.03;1.30;;;;;;;;;;5031909;28;20040;-81
2023/03/29 03:58:50;;;;;;;1.88;1.38;;;;;;;;;;5030303;28;20040;-84
2023/03/29 04:01:15;;;;;;;1.70;1.40;;;;;;;;;;5011373;28;20025;-82
2023/03/29 04:03:41;;;;;;;1.20;1.10;;;;;;;;;;5030136;28;20048;-83
2023/03/29 04:06:06;;;;;;;1.30;1.20;;;;;;;;;;5030157;28;20135;-82
2023/03/29 04:08:32;;;;;;;1.88;1.58;;;;;;;;;;5015020;28;20148;-82
2023/03/29 04:10:58;;;;;;;1.42;1.33;;;;;;;;;;5013814;28;20029;-82
2023/03/29 04:13:25;;;;;;;4.30;1.30;;;;;;;;;;5032335;28;20076;-82
2023/03/29 04:15:54;;;;;;;3.25;1.48;;;;;;;;;;5013773;28;20044;-82
2023/03/29 04:18:20;;;;;;;1.67;1.15;;;;;;;;;;5031151;28;20057;-82
2023/03/29 04:20:46;;;;;;;1.55;1.25;;;;;;;;;;5027855;28;20045;-82
2023/03/29 04:23:12;;;;;;;5.28;1.52;;;;;;;;;;5029614;28;20056;-82
2023/03/29 04:25:38;;;;;;;1.83;1.38;;;;;;;;;;5029189;28;20033;-83
2023/03/29 04:28:03;;;;;;;1.95;1.45;;;;;;;;;;5014446;28;20031;-82
2023/03/29 04:30:29;;;;;;;1.35;1.23;;;;;;;;;;5032447;28;20036;-83
2023/03/29 04:32:54;;;;;;;1.58;1.20;;;;;;;;;;5017083;28;20615;-83
2023/03/29 04:35:19;;;;;;;0.98;0.90;;;;;;;;;;5034234;28;20027;-82
2023/03/29 04:37:44;;;;;;;1.10;0.95;;;;;;;;;;5032348;28;20025;-82
2023/03/29 04:40:13;;;;;;;2.33;1.52;;;;;;;;;;5048838;28;21056;-80
2023/03/29 04:42:43;;;;;;;1.08;1.05;;;;;;;;;;5049762;28;20097;-80
2023/03/29 04:45:09;;;;;;;1.50;1.20;;;;;;;;;;5049173;28;20063;-79
2023/03/29 04:47:35;;;;;;;1.25;1.15;;;;;;;;;;5050187;28;20025;-79
2023/03/29 04:50:01;;;;;;;5.18;1.20;;;;;;;;;;5050107;28;20033;-80
2023/03/29 04:52:26;;;;;;;2.83;1.42;;;;;;;;;;5050546;28;20033;-79
2023/03/29 04:54:51;;;;;;;4.07;1.73;;;;;;;;;;5050515;28;20035;-80
2023/03/29 04:57:17;;;;;;;6.75;2.53;;;;;;;;;;5051327;28;20060;-81
2023/03/29 04:59:42;;;;;;;5.82;2.40;;;;;;;;;;5044411;28;20035;-80
2023/03/29 05:02:07;;;;;;;9.32;2.83;;;;;;;;;;5044225;28;20036;-79
2023/03/29 05:04:33;;;;;;;9.02;2.80;;;;;;;;;;5032382;28;20037;-81
2023/03/29 05:07:00;;;;;;;3.67;1.90;;;;;;;;;;5023843;28;20029;-79
2023/03/29 05:09:25;;;;;;;4.38;1.42;;;;;;;;;;5008669;28;20491;-81
2023/03/29 05:11:51;;;;;;;2.33;1.13;;;;;;;;;;5029109;28;20083;-81
2023/03/29 05:14:22;;;;;;;0.98;0.93;;;;;;;;;;5017403;28;20051;-82
2023/03/29 05:16:49;;;;;;;1.48;1.10;;;;;;;;;;5030016;28;20537;-83
2023/03/29 05:19:15;;;;;;;1.55;1.13;;;;;;;;;;5034787;28;20033;-83
2023/03/29 05:21:41;;;;;;;1.45;0.93;;;;;;;;;;5032852;28;20072;-81
2023/03/29 05:24:06;;;;;;;1.50;0.90;;;;;;;;;;5034892;28;20065;-83
2023/03/29 05:26:32;;;;;;;2.03;1.10;;;;;;;;;;5036981;28;20052;-82
2023/03/29 05:28:58;;;;;;;3.70;1.23;;;;;;;;;;5034563;28;20023;-82
2023/03/29 05:31:23;;;;;;;2.38;1.10;;;;;;;;;;5036335;28;20147;-82
2023/03/29 05:33:50;;;;;;;4.07;1.10;;;;;;;;;;5030663;28;20033;-81
2023/03/29 05:36:17;;;;;;;2.08;0.98;;;;;;;;;;5031894;28;20025;-82
2023/03/29 05:38:44;;;;;;;1.13;1.00;;;;;;;;;;5028470;28;20036;-83
2023/03/29 05:41:10;;;;;;;0.88;0.77;;;;;;;;;;5013761;28;20087;-82
2023/03/29 05:43:35;;;;;;;0.65;0.65;;;;;;;;;;5033346;28;20083;-82
2023/03/29 05:46:01;;;;;;;6.07;1.23;;;;;;;;;;5029150;28;20029;-83
2023/03/29 05:48:27;;;;;;;1.83;1.27;;;;;;;;;;5015529;28;20375;-82
2023/03/29 05:50:54;;;;;;;1.02;0.80;;;;;;;;;;5014566;28;20115;-82
2023/03/29 05:53:21;;;;;;;3.60;1.20;;;;;;;;;;5030339;28;20117;-84
2023/03/29 05:55:46;;;;;;;2.40;1.02;;;;;;;;;;4998915;28;20026;-83
2023/03/29 05:58:12;;;;;;;1.48;0.93;;;;;;;;;;5015160;28;20048;-82
2023/03/29 06:00:39;;;;;;;1.20;1.00;;;;;;;;;;5029088;28;20164;-83
2023/03/29 06:03:06;;;;;;;2.40;0.60;;;;;;;;;;5037567;28;20052;-83
2023/03/29 06:05:32;;;;;;;1.70;1.00;;;;;;;;;;5035256;28;20091;-82
2023/03/29 06:07:58;;;;;;;1.27;0.85;;;;;;;;;;5036922;28;20033;-82
2023/03/29 06:10:24;;;;;;;1.90;0.88;;;;;;;;;;5035983;28;20511;-82
2023/03/29 06:12:50;;;;;;;1.27;0.85;;;;;;;;;;5017246;28;20036;-84
2023/03/29 06:15:16;;;;;;;1.05;0.82;;;;;;;;;;5039205;28;20426;-82
2023/03/29 06:17:44;;;;;;;1.80;0.93;;;;;;;;;;5018791;28;20140;-81
2023/03/29 06:20:10;;;;;;;2.72;1.15;;;;;;;;;;5016582;28;20024;-82
2023/03/29 06:22:40;;;;;;;2.55;0.85;;;;;;;;;;5035649;28;20033;-81
2023/03/29 06:25:08;;;;;;;2.30;1.30;;;;;;;;;;5038364;28;20049;-82
2023/03/29 06:27:33;;;;;;;1.25;1.17;;;;;;;;;;5019639;28;20029;-81
2023/03/29 06:29:59;;;;;;;1.30;1.20;;;;;;;;;;5020063;28;20033;-82
2023/03/29 06:32:25;;;;;;;1.30;1.17;;;;;;;;;;5019895;28;20088;-82
2023/03/29 06:34:51;;;;;;;1.60;1.13;;;;;;;;;;5038055;28;20093;-82
2023/03/29 06:37:17;;;;;;;3.15;1.70;;;;;;;;;;5039232;28;20040;-79
2023/03/29 06:39:42;;;;;;;1.98;1.45;;;;;;;;;;5041938;28;20046;-80
2023/03/29 06:42:08;;;;;;;1.20;1.10;;;;;;;;;;5034481;28;20022;-81
2023/03/29 06:44:34;;;;;;;2.78;1.48;;;;;;;;;;5018707;28;20036;-83
2023/03/29 06:47:00;;;;;;;1.95;1.48;;;;;;;;;;5014494;28;20172;-80
2023/03/29 06:49:25;;;;;;;2.47;1.10;;;;;;;;;;5011798;28;20020;-82
2023/03/29 06:51:51;;;;;;;1.65;1.33;;;;;;;;;;5040264;28;20026;-81
2023/03/29 06:54:17;;;;;;;2.03;1.35;;;;;;;;;;5047704;28;20064;-82
2023/03/29 06:56:45;;;;;;;5.70;1.25;;;;;;;;;;5051775;28;20034;-83
2023/03/29 06:59:10;;;;;;;3.53;1.73;;;;;;;;;;5056538;28;20021;-83
2023/03/29 07:01:36;;;;;;;2.65;1.40;;;;;;;;;;5038877;28;20077;-83
2023/03/29 07:04:06;;;;;;;3.05;1.17;;;;;;;;;;5034930;28;20022;-82
2023/03/29 07:06:32;;;;;;;17.13;1.77;;;;;;;;;;5056205;28;20025;-82
2023/03/29 07:09:00;;;;;;;1.83;1.38;;;;;;;;;;5036464;28;20041;-83
2023/03/29 07:11:25;;;;;;;3.20;1.50;;;;;;;;;;5064868;28;20029;-82
2023/03/29 07:13:51;;;;;;;2.20;1.50;;;;;;;;;;5019405;28;20029;-83
2023/03/29 07:16:18;;;;;;;4.13;1.65;;;;;;;;;;5030597;28;20021;-83
2023/03/29 07:18:43;;;;;;;3.03;1.00;;;;;;;;;;5051226;28;20020;-84
2023/03/29 07:21:11;;;;;;;1.30;1.20;;;;;;;;;;5021548;28;20021;-83
2023/03/29 07:23:37;;;;;;;1.73;1.25;;;;;;;;;;5012864;28;20017;-84
2023/03/29 07:26:06;;;;;;;1.48;1.35;;;;;;;;;;5020053;28;20028;-83
2023/03/29 07:28:31;;;;;;;4.20;1.45;;;;;;;;;;5018615;28;20030;-84
2023/03/29 07:31:03;;;;;;;2.28;1.25;;;;;;;;;;5033253;28;20068;-84
2023/03/29 07:33:29;;;;;;;3.25;1.15;;;;;;;;;;5032908;28;20091;-83
2023/03/29 07:35:54;;;;;;;1.90;1.25;;;;;;;;;;5019685;28;20128;-83
2023/03/29 07:38:19;;;;;;;1.58;1.17;;;;;;;;;;5020113;28;20092;-83
2023/03/29 07:40:45;;;;;;;1.55;1.20;;;;;;;;;;5020007;28;20026;-83
2023/03/29 07:43:10;;;;;;;3.20;1.15;;;;;;;;;;5020350;28;20014;-83
2023/03/29 07:45:36;;;;;;;6.03;2.75;;;;;;;;;;5035303;28;20048;-82
2023/03/29 07:48:01;;;;;;;3.05;1.60;;;;;;;;;;5028505;28;20045;-83
2023/03/29 07:50:27;;;;;;;6.10;1.40;;;;;;;;;;5037012;28;20402;-82
2023/03/29 07:52:52;;;;;;;2.50;1.25;;;;;;;;;;5031694;28;20080;-83
2023/03/29 07:55:18;;;;;;;1.33;1.23;;;;;;;;;;5037415;28;20060;-83
2023/03/29 07:57:44;;;;;;;4.13;1.08;;;;;;;;;;5037240;28;20025;-82
2023/03/29 08:00:14;;;;;;;3.22;1.48;;;;;;;;;;5026139;28;20030;-83
2023/03/29 08:02:44;;;;;;;3.78;0.90;;;;;;;;;;5016112;28;20018;-82
2023/03/29 08:05:12;;;;;;;3.60;1.50;;;;;;;;;;5039805;28;20032;-82
2023/03/29 08:07:40;;;;;;;1.65;1.33;;;;;;;;;;4999641;28;20022;-83
2023/03/29 08:10:08;;;;;;;1.85;1.30;;;;;;;;;;5027265;28;20032;-82
2023/03/29 08:12:34;;;;;;;2.45;1.60;;;;;;;;;;5051197;28;20044;-82
2023/03/29 08:14:59;;;;;;;2.47;1.10;;;;;;;;;;5037359;28;20029;-83
2023/03/29 08:17:24;;;;;;;3.58;1.80;;;;;;;;;;5018803;28;20036;-82
2023/03/29 08:19:50;;;;;;;3.83;2.03;;;;;;;;;;5036222;28;20045;-82
2023/03/29 08:22:15;;;;;;;6.40;2.10;;;;;;;;;;5012997;28;20025;-81
2023/03/29 08:24:41;;;;;;;3.88;1.40;;;;;;;;;;5015856;28;20040;-82
2023/03/29 08:27:06;;;;;;;5.68;1.70;;;;;;;;;;5035752;28;20033;-84
2023/03/29 08:29:32;;;;;;;8.60;1.70;;;;;;;;;;5036374;28;20502;-81
2023/03/29 08:31:57;;;;;;;3.90;2.08;;;;;;;;;;5017979;28;20450;-84
2023/03/29 08:34:22;;;;;;;4.10;1.85;;;;;;;;;;5036820;28;20087;-81
2023/03/29 08:36:48;;;;;;;3.90;1.38;;;;;;;;;;5036108;28;20021;-83
2023/03/29 08:39:13;;;;;;;3.50;1.83;;;;;;;;;;5036186;28;20029;-82
2023/03/29 08:41:56;;;;;;;3.83;1.42;;;;;;;;;;5017656;28;20057;-83
2023/03/29 08:44:36;;;;;;;4.72;1.63;;;;;;;;;;5016274;28;20056;-82
2023/03/29 08:47:07;;;;;;;3.70;1.38;;;;;;;;;;5055193;28;20554;-83
2023/03/29 08:49:37;;;;;;;6.00;1.13;;;;;;;;;;5055900;28;20029;-83
2023/03/29 08:52:09;;;;;;;9.75;2.30;;;;;;;;;;5039226;28;20267;-83
2023/03/29 08:54:47;;;;;;;3.55;1.63;;;;;;;;;;5036078;28;20025;-83
2023/03/29 08:57:25;;;;;;;3.55;1.88;;;;;;;;;;5036391;28;20021;-83
2023/03/29 08:59:53;;;;;;;3.13;1.70;;;;;;;;;;5033120;28;20474;-83
2023/03/29 09:02:23;;;;;;;4.65;1.52;;;;;;;;;;5015748;28;20041;-82
2023/03/29 09:04:51;;;;;;;2.58;1.45;;;;;;;;;;5017407;28;20034;-83
2023/03/29 09:07:16;;;;;;;6.80;1.70;;;;;;;;;;5001417;28;20030;-83
2023/03/29 09:09:42;;;;;;;4.03;1.60;;;;;;;;;;5036334;28;20038;-82
2023/03/29 09:12:45;;;;;;;14.10;2.10;;;;;;;;;;5035697;28;20022;-82
2023/03/29 09:15:51;;;;;;;3.00;1.73;;;;;;;;;;5038215;28;20052;-82
2023/03/29 09:18:36;;;;;;;4.97;1.50;;;;;;;;;;5039458;28;20021;-83
2023/03/29 09:21:20;;;;;;;1.52;1.30;;;;;;;;;;5068374;28;20025;-80
2023/03/29 09:24:31;;;;;;;3.15;1.70;;;;;;;;;;5035714;28;20021;-81
2023/03/29 09:27:08;;;;;;;2.28;1.55;;;;;;;;;;5016142;28;20056;-82
2023/03/29 09:30:12;;;;;;;3.83;1.83;;;;;;;;;;5036406;28;20030;-82
2023/03/29 09:32:52;;;;;;;7.60;1.95;;;;;;;;;;5024089;28;20049;-82
2023/03/29 09:35:23;;;;;;;2.67;1.60;;;;;;;;;;5024332;28;20554;-84
2023/03/29 09:37:51;;;;;;;4.00;1.55;;;;;;;;;;5018073;28;20041;-84
2023/03/29 09:40:42;;;;;;;4.00;1.92;;;;;;;;;;5016122;28;20061;-84
2023/03/29 09:43:12;;;;;;;6.88;1.45;;;;;;;;;;4997942;28;20073;-85
2023/03/29 09:45:39;;;;;;;2.53;1.33;;;;;;;;;;4997948;28;20377;-82
2023/03/29 09:48:12;;;;;;;3.35;1.60;;;;;;;;;;4997942;28;20644;-85
2023/03/29 09:50:41;;;;;;;2.13;1.33;;;;;;;;;;5019654;28;20080;-84
2023/03/29 09:53:08;;;;;;;2.15;1.27;;;;;;;;;;5008753;28;20446;-84
2023/03/29 09:55:36;;;;;;;1.80;1.25;;;;;;;;;;5017733;28;20030;-83
2023/03/29 09:58:11;;;;;;;1.33;1.23;;;;;;;;;;5038971;28;20087;-84
2023/03/29 10:00:37;;;;;;;2.45;1.15;;;;;;;;;;5011633;28;20033;-82
2023/03/29 10:03:02;;;;;;;1.35;0.88;;;;;;;;;;5005462;28;20079;-82
2023/03/29 10:05:31;;;;;;;1.35;1.25;;;;;;;;;;5017556;28;20446;-83
2023/03/29 10:07:59;;;;;;;2.63;1.00;;;;;;;;;;5028101;28;20033;-83
2023/03/29 10:10:34;;;;;;;1.77;1.30;;;;;;;;;;5016473;28;20084;-83
2023/03/29 10:13:18;;;;;;;1.10;1.00;;;;;;;;;;5016963;28;20022;-83
2023/03/29 10:15:43;;;;;;;3.20;1.55;;;;;;;;;;5035803;28;20034;-84
2023/03/29 10:18:12;;;;;;;3.35;1.25;;;;;;;;;;5019225;28;20033;-83
2023/03/29 10:20:39;;;;;;;3.28;1.00;;;;;;;;;;5051987;28;20551;-83
2023/03/29 10:23:07;;;;;;;1.25;1.15;;;;;;;;;;5017766;28;20129;-85
2023/03/29 10:25:36;;;;;;;1.58;1.08;;;;;;;;;;5020664;28;20096;-83
2023/03/29 10:28:10;;;;;;;9.13;4.35;;;;;;;;;;5010033;28;20072;-85
2023/03/29 10:30:37;;;;;;;1.90;1.35;;;;;;;;;;5026047;28;20434;-85
2023/03/29 10:33:08;;;;;;;3.97;1.40;;;;;;;;;;5029232;28;20018;-84
2023/03/29 10:35:40;;;;;;;1.83;1.30;;;;;;;;;;5038899;28;20091;-83
2023/03/29 10:38:13;;;;;;;1.40;1.20;;;;;;;;;;5021414;28;20092;-83
2023/03/29 10:40:44;;;;;;;2.28;1.10;;;;;;;;;;5020726;28;20083;-83
2023/03/29 10:43:24;;;;;;;3.05;1.20;;;;;;;;;;5021553;28;20185;-83
2023/03/29 10:45:55;;;;;;;3.28;1.40;;;;;;;;;;5047742;28;20505;-83
2023/03/29 10:48:30;;;;;;;5.57;1.30;;;;;;;;;;5059897;28;20044;-83
2023/03/29 10:51:00;;;;;;;3.70;1.02;;;;;;;;;;5051767;28;20081;-83
2023/03/29 10:53:29;;;;;;;5.82;1.38;;;;;;;;;;5036933;28;20032;-83
2023/03/29 10:56:15;;;;;;;1.63;1.15;;;;;;;;;;5034319;28;20467;-84
2023/03/29 10:59:23;;;;;;;2.22;1.10;;;;;;;;;;5027169;28;20508;-84
2023/03/29 11:02:33;;;;;;;1.50;1.20;;;;;;;;;;4949222;28;1090722;-83
2023/03/29 11:05:01;;;;;;;3.08;0.98;;;;;;;;;;5011194;28;20049;-83
2023/03/29 11:07:27;;;;;;;1.98;1.10;;;;;;;;;;5047004;28;20104;-84
2023/03/29 11:09:55;;;;;;;2.20;1.15;;;;;;;;;;5027042;28;20046;-84
2023/03/29 11:12:36;;;;;;;2.40;1.27;;;;;;;;;;5043789;28;20422;-83
2023/03/29 11:15:10;;;;;;;1.50;0.90;;;;;;;;;;5043055;28;20020;-84
2023/03/29 11:17:49;;;;;;;2.95;1.23;;;;;;;;;;5049398;28;20021;-84
2023/03/29 11:20:33;;;;;;;1.30;1.20;;;;;;;;;;5048848;28;20059;-84
2023/03/29 11:23:28;;;;;;;2.95;1.20;;;;;;;;;;5044680;28;20025;-84
2023/03/29 11:26:01;;;;;;;2.13;1.08;;;;;;;;;;5057367;28;20024;-86
2023/03/29 11:28:37;;;;;;;2.95;1.23;;;;;;;;;;5039091;28;20044;-84
2023/03/29 11:31:06;;;;;;;1.25;1.00;;;;;;;;;;5035559;28;20025;-85
2023/03/29 11:34:02;;;;;;;2.83;1.20;;;;;;;;;;5018406;28;20413;-84
2023/03/29 11:36:37;;;;;;;2.53;1.02;;;;;;;;;;5037004;28;20026;-84
2023/03/29 11:39:12;;;;;;;2.85;0.88;;;;;;;;;;5018705;28;20091;-84
2023/03/29 11:41:42;;;;;;;2.83;1.17;;;;;;;;;;5019349;28;20033;-85
2023/03/29 11:44:10;;;;;;;1.92;1.17;;;;;;;;;;5036350;28;20053;-84
2023/03/29 11:46:41;;;;;;;1.92;1.33;;;;;;;;;;5038535;28;20601;-85
2023/03/29 11:49:10;;;;;;;1.47;1.00;;;;;;;;;;5038047;28;20033;-84
2023/03/29 11:51:45;;;;;;;3.80;1.25;;;;;;;;;;5038712;28;20361;-84
2023/03/29 11:54:19;;;;;;;1.92;1.20;;;;;;;;;;5020786;28;20033;-85
2023/03/29 11:57:04;;;;;;;4.30;1.67;;;;;;;;;;5028878;28;20032;-84
2023/03/29 11:59:59;;;;;;;2.50;1.20;;;;;;;;;;5037349;28;20372;-84
2023/03/29 12:02:45;;;;;;;0.90;0.88;;;;;;;;;;5017594;28;20040;-84
2023/03/29 12:05:23;;;;;;;2.55;1.23;;;;;;;;;;5011166;28;20095;-84
2023/03/29 12:07:54;;;;;;;1.30;0.85;;;;;;;;;;5007688;28;20432;-85
2023/03/29 12:10:22;;;;;;;1.40;1.27;;;;;;;;;;5028138;28;20022;-85
2023/03/29 12:13:02;;;;;;;2.20;1.23;;;;;;;;;;5015596;28;20021;-83
2023/03/29 12:15:36;;;;;;;3.22;1.30;;;;;;;;;;5020214;28;20025;-84
2023/03/29 12:18:22;;;;;;;2.28;1.20;;;;;;;;;;5024552;28;20373;-83
2023/03/29 12:20:54;;;;;;;3.00;0.95;;;;;;;;;;5007621;28;20436;-85
2023/03/29 12:23:20;;;;;;;;;;;;;;;;;;5044442;28;20025;-83
2023/03/29 12:25:54;;;;;;;1.92;1.08;;;;;;;;;;5051351;28;19920;-84
2023/03/29 12:28:42;;;;;;;2.97;1.17;;;;;;;;;;5037059;28;20027;-83
2023/03/29 12:31:22;;;;;;;2.15;0.98;;;;;;;;;;5053533;28;20025;-83
2023/03/29 12:34:05;;;;;;;2.05;1.15;;;;;;;;;;5030485;28;20119;-84
2023/03/29 12:37:02;;;;;;;1.33;1.23;;;;;;;;;;5053910;28;20036;-84
2023/03/29 12:39:29;;;;;;;2.50;1.33;;;;;;;;;;5047145;28;20039;-84
2023/03/29 12:42:21;;;;;;;3.95;1.30;;;;;;;;;;5025403;28;20014;-86
2023/03/29 12:44:57;;;;;;;1.50;1.05;;;;;;;;;;5006913;28;20029;-84
2023/03/29 12:47:25;;;;;;;4.32;1.15;;;;;;;;;;5046147;28;20064;-84
2023/03/29 12:49:55;;;;;;;4.20;1.73;;;;;;;;;;5029224;28;20064;-81
2023/03/29 12:52:34;;;;;;;1.23;1.00;;;;;;;;;;5047851;28;20181;-81
2023/03/29 12:55:22;;;;;;;6.47;1.38;;;;;;;;;;5022665;28;20132;-83
2023/03/29 12:58:08;;;;;;;3.35;1.05;;;;;;;;;;5038117;28;20098;-85
2023/03/29 13:00:43;;;;;;;6.38;1.15;;;;;;;;;;5040620;28;20517;-85
2023/03/29 13:03:26;;;;;;;1.52;1.23;;;;;;;;;;5035589;28;20027;-85
2023/03/29 13:06:03;;;;;;;2.42;0.95;;;;;;;;;;5034755;28;20112;-85
2023/03/29 13:08:41;;;;;;;1.63;1.00;;;;;;;;;;5035004;28;20021;-85
2023/03/29 13:11:12;;;;;;;4.18;0.90;;;;;;;;;;5019860;28;20106;-85
2023/03/29 13:13:39;;;;;;;4.47;0.97;;;;;;;;;;5034502;28;20017;-85
2023/03/29 13:16:11;;;;;;;0.93;0.70;;;;;;;;;;5034923;28;20098;-85
2023/03/29 13:18:55;;;;;;;1.55;0.98;;;;;;;;;;5035363;28;20108;-85
2023/03/29 13:21:58;;;;;;;3.25;0.82;;;;;;;;;;5035730;28;20090;-85
2023/03/29 13:24:37;;;;;;;2.30;0.82;;;;;;;;;;5031417;28;20025;-82
2023/03/29 13:27:44;;;;;;;1.75;0.88;;;;;;;;;;5034600;28;20045;-85
2023/03/29 13:30:24;;;;;;;1.42;0.80;;;;;;;;;;5011183;28;20025;-83
2023/03/29 13:33:07;;;;;;;1.17;0.75;;;;;;;;;;5017316;28;20243;-85
2023/03/29 13:35:48;;;;;;;2.47;0.85;;;;;;;;;;5016129;28;20022;-85
2023/03/29 13:38:21;;;;;;;2.30;1.05;;;;;;;;;;5023862;28;20052;-85
2023/03/29 13:40:52;;;;;;;0.88;0.75;;;;;;;;;;5043337;28;20024;-85
2023/03/29 13:43:20;;;;;;;4.65;0.85;;;;;;;;;;5055918;28;20475;-85
2023/03/29 13:45:57;;;;;;;4.03;0.80;;;;;;;;;;5030004;28;20537;-84
2023/03/29 13:48:52;;;;;;;2.95;0.65;;;;;;;;;;5050828;28;20505;-84
2023/03/29 13:51:17;;;;;;;2.40;0.82;;;;;;;;;;5065692;28;20044;-83
2023/03/29 13:53:50;;;;;;;4.63;1.00;;;;;;;;;;5057855;28;20222;-83
2023/03/29 13:56:24;;;;;;;4.15;0.73;;;;;;;;;;5032111;28;20030;-83
2023/03/29 13:59:00;;;;;;;1.55;0.98;;;;;;;;;;5015375;28;20033;-85
2023/03/29 14:01:31;;;;;;;1.95;0.90;;;;;;;;;;5018386;28;20075;-84
2023/03/29 14:03:58;;;;;;;4.30;1.50;;;;;;;;;;5038908;28;20014;-84
2023/03/29 14:06:28;;;;;;;1.17;0.80;;;;;;;;;;5039686;28;20029;-84
2023/03/29 14:08:54;;;;;;;3.58;1.17;;;;;;;;;;5020544;28;20021;-84
2023/03/29 14:11:28;;;;;;;1.35;0.77;;;;;;;;;;5014422;28;20040;-83
2023/03/29 14:13:56;;;;;;;1.50;0.90;;;;;;;;;;5031215;28;20032;-84
2023/03/29 14:16:25;;;;;;;1.52;0.82;;;;;;;;;;5011211;28;20387;-85
2023/03/29 14:18:51;;;;;;;3.47;0.70;;;;;;;;;;5015793;28;20044;-84
2023/03/29 14:21:18;;;;;;;0.98;0.90;;;;;;;;;;5015727;28;20028;-84
2023/03/29 14:23:46;;;;;;;1.40;0.90;;;;;;;;;;5019897;28;20032;-84
2023/03/29 14:26:16;;;;;;;1.27;0.90;;;;;;;;;;5010579;28;20116;-83
2023/03/29 14:28:48;;;;;;;0.70;0.70;;;;;;;;;;5019239;28;20491;-84
2023/03/29 14:31:17;;;;;;;1.55;1.05;;;;;;;;;;5019081;28;20087;-84
2023/03/29 14:33:42;;;;;;;2.58;1.00;;;;;;;;;;5036476;28;20017;-84
2023/03/29 14:36:12;;;;;;;1.00;0.90;;;;;;;;;;5018997;28;20176;-85
2023/03/29 14:38:38;;;;;;;2.38;0.93;;;;;;;;;;5019851;28;20029;-84
2023/03/29 14:41:05;;;;;;;1.38;0.90;;;;;;;;;;5036538;28;20032;-85
2023/03/29 14:43:30;;;;;;;1.10;1.00;;;;;;;;;;5016452;28;20025;-83
2023/03/29 14:45:59;;;;;;;0.80;0.77;;;;;;;;;;5032562;28;20037;-84
2023/03/29 14:48:25;;;;;;;1.10;0.88;;;;;;;;;;5013125;28;20194;-83
2023/03/29 14:50:50;;;;;;;2.40;0.88;;;;;;;;;;5022146;28;20040;-85
2023/03/29 14:53:19;;;;;;;3.55;0.77;;;;;;;;;;5016571;28;20049;-85
2023/03/29 14:55:51;;;;;;;1.02;0.85;;;;;;;;;;5035168;28;20042;-85
2023/03/29 14:58:26;;;;;;;;;;;;;;;;;;5041941;28;20083;-84
2023/03/29 15:00:52;;;;;;;2.15;1.10;;;;;;;;;;5040956;28;19959;-84
2023/03/29 15:03:21;;;;;;;1.38;1.08;;;;;;;;;;5041861;28;20053;-85
2023/03/29 15:05:50;;;;;;;2.05;1.08;;;;;;;;;;5043071;28;20028;-87